Time;durP1;ratioP1;P1;durP2;ratioP2;P2;SDS_P1;SDS_P2;PMS_P1;PMS_P2;Temp;Humidity;BMP_temperature;BMP_pressure;BME280_temperature;BME280_humidity;BME280_pressure;Samples;Min_cycle;Max_cycle;Signal;HPM_P1;HPM_P2
2022/12/02 00:01:51;;;;;;;17.63;7.53;;;8.40;99.90;;;;;;5032084;28;20774;-83
2022/12/02 00:04:25;;;;;;;18.27;8.30;;;8.40;99.90;;;;;;5024172;28;20044;-83
2022/12/02 00:06:53;;;;;;;16.80;7.53;;;8.40;99.90;;;;;;5043064;28;20083;-83
2022/12/02 00:09:31;;;;;;;17.13;7.57;;;8.40;99.90;;;;;;5014280;28;20025;-83
2022/12/02 00:11:58;;;;;;;16.35;7.13;;;8.40;99.90;;;;;;5018301;28;20029;-83
2022/12/02 00:14:26;;;;;;;16.50;7.03;;;8.40;99.90;;;;;;5034627;28;20315;-83
2022/12/02 00:16:52;;;;;;;17.15;7.93;;;8.40;99.90;;;;;;5043496;28;20032;-83
2022/12/02 00:19:18;;;;;;;17.40;7.15;;;8.40;99.90;;;;;;5004953;28;20039;-83
2022/12/02 00:21:44;;;;;;;18.80;7.93;;;8.40;99.90;;;;;;5034560;28;20025;-83
2022/12/02 00:24:10;;;;;;;17.40;7.50;;;8.40;99.90;;;;;;5004691;28;20146;-83
2022/12/02 00:26:36;;;;;;;15.93;7.13;;;8.30;99.90;;;;;;5015170;28;20017;-82
2022/12/02 00:29:01;;;;;;;17.05;7.00;;;8.30;99.90;;;;;;5033693;28;20029;-83
2022/12/02 00:31:27;;;;;;;17.40;7.17;;;8.40;99.90;;;;;;5038278;28;20075;-83
2022/12/02 00:33:53;;;;;;;15.80;7.38;;;8.40;99.90;;;;;;5023535;28;20037;-83
2022/12/02 00:36:19;;;;;;;16.80;6.95;;;8.30;99.90;;;;;;5015754;28;20240;-83
2022/12/02 00:38:44;;;;;;;17.93;7.93;;;8.30;99.90;;;;;;5016102;28;20378;-83
2022/12/02 00:41:10;;;;;;;16.60;7.13;;;8.30;99.90;;;;;;5009567;28;20427;-83
2022/12/02 00:46:32;;;;;;;17.20;8.20;;;8.30;99.90;;;;;;5020975;28;20331;-83
2022/12/02 00:48:59;;;;;;;16.17;7.18;;;8.30;99.90;;;;;;5032249;28;20096;-83
2022/12/02 00:51:25;;;;;;;14.97;6.63;;;8.30;99.90;;;;;;4995320;28;20033;-83
2022/12/02 00:53:50;;;;;;;14.43;6.80;;;8.30;99.90;;;;;;5028254;28;20523;-83
2022/12/02 00:56:16;;;;;;;18.10;7.47;;;8.30;99.90;;;;;;5021126;28;20611;-83
2022/12/02 00:58:42;;;;;;;15.80;6.90;;;8.30;99.90;;;;;;5020101;28;20060;-83
2022/12/02 01:01:08;;;;;;;16.48;6.97;;;8.30;99.90;;;;;;5052048;28;20562;-83
2022/12/02 01:03:33;;;;;;;17.23;7.47;;;8.30;99.90;;;;;;5005137;28;20304;-83
2022/12/02 01:06:00;;;;;;;16.37;7.33;;;8.30;99.90;;;;;;5006810;28;20025;-83
2022/12/02 01:08:26;;;;;;;19.33;7.95;;;8.30;99.90;;;;;;5055738;28;20036;-83
2022/12/02 01:10:56;;;;;;;15.35;7.22;;;8.30;99.90;;;;;;5047549;28;20477;-83
2022/12/02 01:13:23;;;;;;;16.23;6.80;;;8.30;99.90;;;;;;5052520;28;20075;-83
2022/12/02 01:15:49;;;;;;;16.90;7.20;;;8.20;99.90;;;;;;5046653;28;20120;-83
2022/12/02 01:18:15;;;;;;;15.55;7.38;;;8.20;99.90;;;;;;5022176;28;20538;-83
2022/12/02 01:20:41;;;;;;;15.50;7.05;;;8.20;99.90;;;;;;5001779;28;20266;-83
2022/12/02 01:23:07;;;;;;;17.97;7.40;;;8.20;99.90;;;;;;5067083;28;20397;-83
2022/12/02 01:25:33;;;;;;;16.17;7.07;;;8.20;99.90;;;;;;5029644;28;20021;-83
2022/12/02 01:27:58;;;;;;;16.25;6.90;;;8.20;99.90;;;;;;5008582;28;20029;-82
2022/12/02 01:30:24;;;;;;;17.33;7.20;;;8.20;99.90;;;;;;5061122;28;20108;-82
2022/12/02 01:32:50;;;;;;;14.63;6.85;;;8.20;99.90;;;;;;5041448;28;20518;-82
2022/12/02 01:35:16;;;;;;;17.00;7.20;;;8.20;99.90;;;;;;5034245;28;20129;-83
2022/12/02 01:37:42;;;;;;;16.33;7.35;;;8.20;99.90;;;;;;5015355;28;20245;-83
2022/12/02 01:40:09;;;;;;;15.67;7.10;;;8.30;99.90;;;;;;5020231;28;20029;-82
2022/12/02 01:42:35;;;;;;;14.52;7.03;;;8.20;99.90;;;;;;5012063;28;20026;-83
2022/12/02 01:45:01;;;;;;;14.43;6.40;;;8.20;99.90;;;;;;5034750;28;20035;-82
2022/12/02 01:47:27;;;;;;;17.67;7.43;;;8.20;99.90;;;;;;5050024;28;20515;-83
2022/12/02 01:49:53;;;;;;;17.33;6.70;;;8.30;99.90;;;;;;5032090;28;20064;-83
2022/12/02 01:52:19;;;;;;;16.48;7.30;;;8.20;99.90;;;;;;5020906;28;20091;-83
2022/12/02 01:54:44;;;;;;;18.37;8.03;;;8.20;99.90;;;;;;5026839;28;20465;-83
2022/12/02 01:57:12;;;;;;;17.05;7.43;;;8.20;99.90;;;;;;5013965;28;20784;-83
2022/12/02 01:59:40;;;;;;;17.77;7.63;;;8.20;99.90;;;;;;5009091;28;20040;-83
2022/12/02 02:02:34;;;;;;;18.20;7.93;;;8.20;99.90;;;;;;5043800;28;20032;-83
2022/12/02 02:05:08;;;;;;;16.07;7.10;;;8.30;99.90;;;;;;5019035;28;20040;-83
2022/12/02 02:07:35;;;;;;;16.30;7.00;;;8.20;99.90;;;;;;5030810;28;20021;-83
2022/12/02 02:10:01;;;;;;;16.90;6.97;;;8.20;99.90;;;;;;5007179;28;20033;-83
2022/12/02 02:12:27;;;;;;;17.30;7.95;;;8.20;99.90;;;;;;5019842;28;20033;-83
2022/12/02 02:14:53;;;;;;;15.43;6.77;;;8.20;99.90;;;;;;5018488;28;20083;-83
2022/12/02 02:17:19;;;;;;;15.60;6.75;;;8.20;99.90;;;;;;5045029;28;20089;-83
2022/12/02 02:19:45;;;;;;;14.50;6.70;;;8.20;99.90;;;;;;5042927;28;20101;-83
2022/12/02 02:22:15;;;;;;;17.27;7.33;;;8.20;99.90;;;;;;5014750;28;20685;-83
2022/12/02 02:24:41;;;;;;;15.40;6.97;;;8.20;99.90;;;;;;5020463;28;20036;-83
2022/12/02 02:27:06;;;;;;;16.97;7.17;;;8.20;99.90;;;;;;5045856;28;20650;-83
2022/12/02 02:29:32;;;;;;;15.38;6.50;;;8.20;99.90;;;;;;4997123;28;20029;-83
2022/12/02 02:31:59;;;;;;;16.77;7.05;;;8.20;99.90;;;;;;5030311;28;20369;-83
2022/12/02 02:34:24;;;;;;;15.37;6.80;;;8.20;99.90;;;;;;5033432;28;20017;-83
2022/12/02 02:36:50;;;;;;;17.40;7.65;;;8.20;99.90;;;;;;5024701;28;20039;-83
2022/12/02 02:39:16;;;;;;;17.63;7.00;;;8.20;99.90;;;;;;5032930;28;20626;-83
2022/12/02 02:41:42;;;;;;;15.17;6.40;;;8.20;99.90;;;;;;5049086;28;20392;-83
2022/12/02 02:44:08;;;;;;;16.35;6.90;;;8.20;99.90;;;;;;4995907;28;20830;-83
2022/12/02 02:46:33;;;;;;;16.90;7.57;;;8.20;99.90;;;;;;5024232;28;20017;-83
2022/12/02 02:48:59;;;;;;;16.53;7.60;;;8.20;99.90;;;;;;5026822;28;20166;-84
2022/12/02 02:51:25;;;;;;;15.10;6.53;;;8.20;99.90;;;;;;5031728;28;20496;-84
2022/12/02 02:53:51;;;;;;;16.83;7.13;;;8.20;99.90;;;;;;5017428;28;20117;-83
2022/12/02 02:56:17;;;;;;;16.80;7.28;;;8.20;99.90;;;;;;5005123;28;20044;-83
2022/12/02 02:58:43;;;;;;;18.42;7.70;;;8.20;99.90;;;;;;5015795;28;20654;-83
2022/12/02 03:01:14;;;;;;;16.23;6.77;;;8.20;99.90;;;;;;5015764;28;20037;-83
2022/12/02 03:03:56;;;;;;;17.30;6.97;;;8.20;99.90;;;;;;5024490;28;20026;-83
2022/12/02 03:06:25;;;;;;;16.00;7.25;;;8.20;99.90;;;;;;5029133;28;20056;-83
2022/12/02 03:08:51;;;;;;;20.35;7.32;;;8.20;99.90;;;;;;5025431;28;20103;-83
2022/12/02 03:11:17;;;;;;;18.00;7.43;;;8.20;99.90;;;;;;5009307;28;20032;-83
2022/12/02 03:13:45;;;;;;;18.40;7.72;;;8.20;99.90;;;;;;5026211;28;20406;-83
2022/12/02 03:16:13;;;;;;;17.95;7.25;;;8.20;99.90;;;;;;5021544;28;20026;-83
2022/12/02 03:18:40;;;;;;;16.02;6.85;;;8.20;99.90;;;;;;5015323;28;20040;-83
2022/12/02 03:21:07;;;;;;;15.97;6.53;;;8.20;99.90;;;;;;5028337;28;20021;-84
2022/12/02 03:23:34;;;;;;;17.73;6.70;;;8.20;99.90;;;;;;5015285;28;20175;-84
2022/12/02 03:26:01;;;;;;;17.25;7.30;;;8.20;99.90;;;;;;5014739;28;20512;-83
2022/12/02 03:28:28;;;;;;;17.67;7.32;;;8.20;99.90;;;;;;5003501;28;20025;-84
2022/12/02 03:30:54;;;;;;;16.10;6.95;;;8.20;99.90;;;;;;5041091;28;20178;-83
2022/12/02 03:33:20;;;;;;;18.53;6.90;;;8.20;99.90;;;;;;5035978;28;20017;-84
2022/12/02 03:35:47;;;;;;;18.02;7.20;;;8.20;99.90;;;;;;5047415;28;20584;-83
2022/12/02 03:38:12;;;;;;;18.85;7.78;;;8.20;99.90;;;;;;5032612;28;20071;-83
2022/12/02 03:40:38;;;;;;;16.57;7.10;;;8.20;99.90;;;;;;5025067;28;20617;-83
2022/12/02 03:43:04;;;;;;;16.67;7.18;;;8.10;99.90;;;;;;5004681;28;20025;-84
2022/12/02 03:45:30;;;;;;;17.60;6.80;;;8.20;99.90;;;;;;5046373;28;20478;-83
2022/12/02 03:47:56;;;;;;;17.90;7.47;;;8.20;99.90;;;;;;5008471;28;20021;-83
2022/12/02 03:50:22;;;;;;;15.38;6.78;;;8.20;99.90;;;;;;5025367;28;20026;-83
2022/12/02 03:52:48;;;;;;;19.57;7.90;;;8.20;99.90;;;;;;5029324;28;20135;-83
2022/12/02 03:55:14;;;;;;;16.10;7.40;;;8.20;99.90;;;;;;5015187;28;20728;-83
2022/12/02 03:57:41;;;;;;;16.83;6.68;;;8.20;99.90;;;;;;5006504;28;20573;-84
2022/12/02 04:00:09;;;;;;;15.60;6.78;;;8.20;99.90;;;;;;5017116;28;20055;-83
2022/12/02 04:02:35;;;;;;;17.73;7.45;;;8.20;99.90;;;;;;5006480;28;20043;-83
2022/12/02 04:05:01;;;;;;;17.40;7.13;;;8.20;99.90;;;;;;5047457;28;20317;-83
2022/12/02 04:07:26;;;;;;;18.45;7.47;;;8.20;99.90;;;;;;5047272;28;20041;-83
2022/12/02 04:09:52;;;;;;;18.07;6.90;;;8.20;99.90;;;;;;5028601;28;20341;-83
2022/12/02 04:12:17;;;;;;;17.30;7.47;;;8.20;99.90;;;;;;5030453;28;20025;-83
2022/12/02 04:14:43;;;;;;;20.75;7.95;;;8.20;99.90;;;;;;5013067;28;20112;-83
2022/12/02 04:17:09;;;;;;;17.80;7.17;;;8.20;99.90;;;;;;5015289;28;20025;-83
2022/12/02 04:19:35;;;;;;;22.70;9.07;;;8.20;99.90;;;;;;5046595;28;20017;-83
2022/12/02 04:22:00;;;;;;;22.97;8.90;;;8.20;99.90;;;;;;5031734;28;20018;-84
2022/12/02 04:24:27;;;;;;;18.85;7.75;;;8.20;99.90;;;;;;5020882;28;20130;-83
2022/12/02 04:26:54;;;;;;;19.85;7.70;;;8.20;99.90;;;;;;5038699;28;20474;-83
2022/12/02 04:29:20;;;;;;;19.40;7.93;;;8.20;99.90;;;;;;5003715;28;20028;-83
2022/12/02 04:31:45;;;;;;;19.37;7.77;;;8.20;99.90;;;;;;5036790;28;20029;-83
2022/12/02 04:34:11;;;;;;;22.90;7.95;;;8.20;99.90;;;;;;5005878;28;20627;-83
2022/12/02 04:36:37;;;;;;;19.63;7.53;;;8.20;99.90;;;;;;5029172;28;20021;-83
2022/12/02 04:39:03;;;;;;;25.30;8.87;;;8.20;99.90;;;;;;5035778;28;20143;-83
2022/12/02 04:41:29;;;;;;;24.98;9.07;;;8.20;99.90;;;;;;5060914;28;20204;-83
2022/12/02 04:43:54;;;;;;;24.83;8.90;;;8.20;99.90;;;;;;5037271;28;20091;-83
2022/12/02 04:46:20;;;;;;;25.00;8.47;;;8.20;99.90;;;;;;5036478;28;20536;-84
2022/12/02 04:48:45;;;;;;;24.25;8.85;;;8.20;99.90;;;;;;5024404;28;20069;-83
2022/12/02 04:51:11;;;;;;;24.93;9.93;;;8.20;99.90;;;;;;5019808;28;20498;-83
2022/12/02 04:53:37;;;;;;;23.03;7.97;;;8.20;99.90;;;;;;5049099;28;20117;-83
2022/12/02 04:56:02;;;;;;;24.35;8.75;;;8.20;99.90;;;;;;5050489;28;20199;-83
2022/12/02 04:58:28;;;;;;;23.83;8.77;;;8.20;99.90;;;;;;5013956;28;20062;-83
2022/12/02 05:00:54;;;;;;;23.92;8.40;;;8.20;99.90;;;;;;5007151;28;20034;-84
2022/12/02 05:03:19;;;;;;;23.07;8.10;;;8.20;99.90;;;;;;5010604;28;20025;-84
2022/12/02 05:05:45;;;;;;;27.83;9.53;;;8.20;99.90;;;;;;4997574;28;20024;-83
2022/12/02 05:08:11;;;;;;;23.60;9.23;;;8.20;99.90;;;;;;5017129;28;20017;-83
2022/12/02 05:10:36;;;;;;;24.47;8.93;;;8.20;99.90;;;;;;5057674;28;20040;-83
2022/12/02 05:13:02;;;;;;;21.42;9.02;;;8.20;99.90;;;;;;5032747;28;20137;-83
2022/12/02 05:15:27;;;;;;;21.27;9.23;;;8.20;99.90;;;;;;4999023;28;20025;-83
2022/12/02 05:17:53;;;;;;;23.17;9.18;;;8.20;99.90;;;;;;5030413;28;20033;-83
2022/12/02 05:20:19;;;;;;;24.60;9.23;;;8.20;99.90;;;;;;5032240;28;20085;-83
2022/12/02 05:22:44;;;;;;;25.83;9.35;;;8.20;99.90;;;;;;5021947;28;20052;-83
2022/12/02 05:25:10;;;;;;;24.33;9.70;;;8.20;99.90;;;;;;5044547;28;20033;-83
2022/12/02 05:27:36;;;;;;;26.60;9.18;;;8.20;99.90;;;;;;5025766;28;20222;-83
2022/12/02 05:30:04;;;;;;;26.03;9.00;;;8.10;99.90;;;;;;5041540;28;20036;-83
2022/12/02 05:32:29;;;;;;;22.52;7.45;;;8.10;99.90;;;;;;5006365;28;20599;-84
2022/12/02 05:34:55;;;;;;;24.47;9.43;;;8.10;99.90;;;;;;5042036;28;20112;-83
2022/12/02 05:37:20;;;;;;;30.40;10.48;;;8.10;99.90;;;;;;5040502;28;20063;-83
2022/12/02 05:39:46;;;;;;;28.90;10.17;;;8.10;99.90;;;;;;5033302;28;20333;-83
2022/12/02 05:42:14;;;;;;;28.40;9.47;;;8.10;99.90;;;;;;5029137;28;20025;-84
2022/12/02 05:44:42;;;;;;;26.60;9.10;;;8.10;99.90;;;;;;5049975;28;20048;-84
2022/12/02 05:47:16;;;;;;;24.73;9.30;;;8.10;99.90;;;;;;5025275;28;20021;-83
2022/12/02 05:49:43;;;;;;;23.90;8.32;;;8.00;99.90;;;;;;5043809;28;20029;-83
2022/12/02 05:52:25;;;;;;;24.33;9.15;;;8.00;99.90;;;;;;5021659;28;20022;-83
2022/12/02 05:54:54;;;;;;;22.33;8.50;;;8.00;99.90;;;;;;5047290;28;20127;-83
2022/12/02 05:57:37;;;;;;;24.85;8.43;;;8.00;99.90;;;;;;5046738;28;20055;-83
2022/12/02 06:00:17;;;;;;;27.00;9.15;;;8.00;99.90;;;;;;5060300;28;20029;-83
2022/12/02 06:02:49;;;;;;;24.92;9.10;;;8.00;99.90;;;;;;4981895;28;20029;-84
2022/12/02 06:05:38;;;;;;;24.98;8.85;;;8.00;99.90;;;;;;5047756;28;20100;-84
2022/12/02 06:08:19;;;;;;;28.80;9.70;;;8.00;99.90;;;;;;5022146;28;20515;-84
2022/12/02 06:10:52;;;;;;;26.40;9.40;;;8.00;99.90;;;;;;5015607;28;20037;-84
2022/12/02 06:13:25;;;;;;;29.98;9.95;;;7.90;99.90;;;;;;5016373;28;20028;-83
2022/12/02 06:15:51;;;;;;;29.33;10.40;;;7.90;99.90;;;;;;4996226;28;20119;-85
2022/12/02 06:18:20;;;;;;;29.88;9.63;;;7.90;99.90;;;;;;4994831;28;20039;-83
2022/12/02 06:20:52;;;;;;;30.87;10.10;;;7.90;99.90;;;;;;5029217;28;20076;-83
2022/12/02 06:23:19;;;;;;;35.42;11.35;;;7.90;99.90;;;;;;5033815;28;20063;-83
2022/12/02 06:25:46;;;;;;;26.42;9.55;;;7.80;99.90;;;;;;5007175;28;20227;-84
2022/12/02 06:28:35;;;;;;;26.95;9.57;;;7.80;99.90;;;;;;5016135;28;20028;-83
2022/12/02 06:31:13;;;;;;;27.60;9.52;;;7.80;99.90;;;;;;5030916;28;20083;-83
2022/12/02 06:33:39;;;;;;;23.90;8.67;;;7.70;99.90;;;;;;5034473;28;20130;-83
2022/12/02 06:36:13;;;;;;;22.67;8.30;;;7.70;99.90;;;;;;5056254;28;20026;-83
2022/12/02 06:39:15;;;;;;;26.63;8.35;;;7.60;99.90;;;;;;5009587;28;20041;-83
2022/12/02 06:41:40;;;;;;;20.90;7.93;;;7.60;99.90;;;;;;5017127;28;20025;-84
2022/12/02 06:47:31;;;;;;;22.42;8.77;;;7.50;99.90;;;;;;5027667;28;20249;-83
2022/12/02 06:50:17;;;;;;;19.27;7.50;;;7.50;99.90;;;;;;4991801;28;20037;-84
2022/12/02 06:52:45;;;;;;;19.83;7.05;;;7.50;99.90;;;;;;5005716;28;20052;-83
2022/12/02 06:55:33;;;;;;;22.90;8.10;;;7.40;99.90;;;;;;5027406;28;20045;-88
2022/12/02 06:58:25;;;;;;;19.70;7.10;;;7.40;99.90;;;;;;5030179;28;20489;-84
2022/12/02 07:00:51;;;;;;;22.98;7.43;;;7.40;99.90;;;;;;4997114;28;20117;-83
2022/12/02 07:03:29;;;;;;;18.30;6.82;;;7.40;99.90;;;;;;5026071;28;20036;-83
2022/12/02 07:06:12;;;;;;;17.48;6.50;;;7.40;99.90;;;;;;5032737;28;20585;-84
2022/12/02 07:08:38;;;;;;;20.03;6.97;;;7.40;99.90;;;;;;5039706;28;20064;-83
2022/12/02 07:11:13;;;;;;;21.95;7.82;;;7.30;99.90;;;;;;5011510;28;20063;-84
2022/12/02 07:13:38;;;;;;;19.33;6.65;;;7.30;99.90;;;;;;5046904;28;20786;-84
2022/12/02 07:16:29;;;;;;;22.33;8.17;;;7.30;99.90;;;;;;5026566;28;20021;-84
2022/12/02 07:18:54;;;;;;;25.27;8.10;;;7.30;99.90;;;;;;4999525;28;20029;-83
2022/12/02 07:21:20;;;;;;;22.03;8.03;;;7.30;99.90;;;;;;5026981;28;20039;-83
2022/12/02 07:23:46;;;;;;;19.77;7.38;;;7.30;99.90;;;;;;5015466;28;20014;-84
2022/12/02 07:26:12;;;;;;;19.40;6.53;;;7.30;99.90;;;;;;5013182;28;20494;-84
2022/12/02 07:28:41;;;;;;;18.27;7.43;;;7.30;99.90;;;;;;5032815;28;20221;-84
2022/12/02 07:31:27;;;;;;;18.30;6.13;;;7.20;99.90;;;;;;5011621;28;20099;-84
2022/12/02 07:33:53;;;;;;;16.97;6.20;;;7.20;99.90;;;;;;5033905;28;20028;-83
2022/12/02 07:36:19;;;;;;;22.98;7.55;;;7.20;99.90;;;;;;4995981;28;21526;-83
2022/12/02 07:38:45;;;;;;;20.48;7.20;;;7.20;99.90;;;;;;5028544;28;20025;-83
2022/12/02 07:41:12;;;;;;;23.30;8.37;;;7.20;99.90;;;;;;4996583;28;20034;-83
2022/12/02 07:43:38;;;;;;;24.73;8.32;;;7.20;99.90;;;;;;5027692;28;20239;-83
2022/12/02 07:46:03;;;;;;;22.40;7.35;;;7.10;99.90;;;;;;5031038;28;20021;-83
2022/12/02 07:48:29;;;;;;;20.90;7.53;;;7.10;99.90;;;;;;5039603;28;20085;-83
2022/12/02 07:50:55;;;;;;;24.83;8.40;;;7.10;99.90;;;;;;4996844;28;20035;-83
2022/12/02 07:53:21;;;;;;;21.83;7.43;;;7.10;99.90;;;;;;5019350;28;20299;-83
2022/12/02 07:55:46;;;;;;;22.25;7.85;;;7.10;99.90;;;;;;5030240;28;20175;-83
2022/12/02 07:58:12;;;;;;;22.73;7.67;;;7.10;99.90;;;;;;5036330;28;20033;-83
2022/12/02 08:00:37;;;;;;;23.40;7.70;;;7.10;99.90;;;;;;5009704;28;20588;-84
2022/12/02 08:03:03;;;;;;;20.83;7.50;;;7.10;99.90;;;;;;5006526;28;20218;-83
2022/12/02 08:05:29;;;;;;;20.63;7.13;;;7.10;99.90;;;;;;5026008;28;20071;-83
2022/12/02 08:07:54;;;;;;;19.10;6.67;;;7.10;99.90;;;;;;5006855;28;20025;-84
2022/12/02 08:10:21;;;;;;;17.73;6.17;;;7.10;99.90;;;;;;5050831;28;20029;-83
2022/12/02 08:12:47;;;;;;;17.60;6.15;;;7.10;99.90;;;;;;4996750;28;20209;-85
2022/12/02 08:15:14;;;;;;;23.55;7.63;;;7.10;99.90;;;;;;5031146;28;20116;-84
2022/12/02 08:17:41;;;;;;;22.83;7.45;;;7.10;99.90;;;;;;5015935;28;20032;-84
2022/12/02 08:20:11;;;;;;;18.63;6.30;;;7.10;99.90;;;;;;5011483;28;20557;-84
2022/12/02 08:22:37;;;;;;;21.23;6.97;;;7.10;99.90;;;;;;4991093;28;20223;-84
2022/12/02 08:25:04;;;;;;;18.60;6.25;;;7.00;99.90;;;;;;5033929;28;20044;-83
2022/12/02 08:27:29;;;;;;;22.10;6.85;;;7.00;99.90;;;;;;5042606;28;20086;-83
2022/12/02 08:29:55;;;;;;;22.17;7.10;;;7.00;99.90;;;;;;5034999;28;20021;-83
2022/12/02 08:32:21;;;;;;;20.85;7.00;;;7.00;99.90;;;;;;5015893;28;20031;-82
2022/12/02 08:34:46;;;;;;;21.40;7.57;;;7.00;99.90;;;;;;5022545;28;20251;-83
2022/12/02 08:37:12;;;;;;;18.55;6.28;;;7.00;99.90;;;;;;5005360;28;20550;-83
2022/12/02 08:39:38;;;;;;;20.25;6.75;;;7.00;99.90;;;;;;5023246;28;20029;-83
2022/12/02 08:42:04;;;;;;;16.77;6.47;;;7.00;99.90;;;;;;5019749;28;20031;-83
2022/12/02 08:44:30;;;;;;;17.25;5.88;;;7.00;99.90;;;;;;4998305;28;20412;-84
2022/12/02 08:46:56;;;;;;;19.70;6.30;;;7.00;99.90;;;;;;5041016;28;20413;-83
2022/12/02 08:49:22;;;;;;;19.92;6.40;;;7.00;99.90;;;;;;5030428;28;20566;-83
2022/12/02 08:51:48;;;;;;;20.30;7.22;;;7.00;99.90;;;;;;5012982;28;20021;-83
2022/12/02 08:54:14;;;;;;;18.93;6.27;;;7.00;99.90;;;;;;5020417;28;20022;-83
2022/12/02 08:56:40;;;;;;;20.55;7.63;;;7.00;99.90;;;;;;5022680;28;20383;-84
2022/12/02 08:59:06;;;;;;;21.02;6.95;;;7.00;99.90;;;;;;5030652;28;20025;-83
2022/12/02 09:01:32;;;;;;;22.57;7.50;;;7.00;99.90;;;;;;5024247;28;20041;-83
2022/12/02 09:03:57;;;;;;;16.83;5.78;;;6.90;99.90;;;;;;5018216;28;20943;-83
2022/12/02 09:06:23;;;;;;;20.10;6.53;;;6.90;99.90;;;;;;5044277;28;20021;-83
2022/12/02 09:08:49;;;;;;;21.05;6.53;;;6.90;99.90;;;;;;5006306;28;20052;-83
2022/12/02 09:11:14;;;;;;;21.23;6.80;;;6.90;99.90;;;;;;5009943;28;20028;-83
2022/12/02 09:13:40;;;;;;;22.30;7.70;;;6.90;99.90;;;;;;5010769;28;23269;-83
2022/12/02 09:16:06;;;;;;;16.90;5.87;;;7.00;99.90;;;;;;5058567;28;20021;-83
2022/12/02 09:18:32;;;;;;;21.88;7.22;;;7.00;99.90;;;;;;5023062;28;20421;-84
2022/12/02 09:20:57;;;;;;;17.03;6.70;;;7.00;99.90;;;;;;5030971;28;20025;-83
2022/12/02 09:23:23;;;;;;;18.92;6.88;;;7.00;99.90;;;;;;4978346;28;20033;-83
2022/12/02 09:25:49;;;;;;;16.47;6.37;;;6.90;99.90;;;;;;5003646;28;20044;-83
2022/12/02 09:28:14;;;;;;;18.55;6.55;;;6.90;99.90;;;;;;5020059;28;20036;-83
2022/12/02 09:30:40;;;;;;;18.83;6.27;;;6.90;99.90;;;;;;4997555;28;20502;-83
2022/12/02 09:33:05;;;;;;;18.00;6.60;;;6.90;99.90;;;;;;5020133;28;20021;-83
2022/12/02 09:35:31;;;;;;;17.00;6.10;;;7.00;99.90;;;;;;5032578;28;20481;-83
2022/12/02 09:37:57;;;;;;;16.37;5.73;;;7.00;99.90;;;;;;5020973;28;20541;-83
2022/12/02 09:40:22;;;;;;;18.13;6.20;;;7.00;99.90;;;;;;5005027;28;20025;-83
2022/12/02 09:42:49;;;;;;;18.37;5.93;;;7.00;99.90;;;;;;5027580;28;20230;-83
2022/12/02 09:45:15;;;;;;;17.98;5.80;;;7.00;99.90;;;;;;5044319;28;20018;-84
2022/12/02 09:47:41;;;;;;;17.37;6.10;;;7.00;99.90;;;;;;5011567;28;20036;-84
2022/12/02 09:50:11;;;;;;;17.83;6.30;;;7.00;99.90;;;;;;5036007;28;20283;-83
2022/12/02 09:52:37;;;;;;;19.30;6.82;;;7.00;99.90;;;;;;5008927;28;20271;-84
2022/12/02 09:55:12;;;;;;;18.10;7.05;;;7.00;99.90;;;;;;5009938;28;20352;-83
2022/12/02 09:57:37;;;;;;;19.70;6.63;;;7.00;99.90;;;;;;5050544;28;20519;-83
2022/12/02 10:00:08;;;;;;;18.03;5.93;;;7.00;99.90;;;;;;5012495;28;20284;-84
2022/12/02 10:02:57;;;;;;;17.15;5.82;;;6.90;99.90;;;;;;4982237;28;20044;-83
2022/12/02 10:05:26;;;;;;;13.80;5.22;;;6.90;99.90;;;;;;5028584;28;20028;-83
2022/12/02 10:07:54;;;;;;;17.03;6.33;;;6.90;99.90;;;;;;5026717;28;20616;-83
2022/12/02 10:10:24;;;;;;;16.65;6.22;;;6.90;99.90;;;;;;5037708;28;20040;-83
2022/12/02 10:12:50;;;;;;;17.30;5.85;;;6.90;99.90;;;;;;5041917;28;20759;-83
2022/12/02 10:15:20;;;;;;;16.13;5.30;;;6.90;99.90;;;;;;5018794;28;20037;-83
2022/12/02 10:17:46;;;;;;;12.23;4.47;;;7.00;99.90;;;;;;5002700;28;20032;-83
2022/12/02 10:20:24;;;;;;;16.20;4.77;;;6.90;99.90;;;;;;5024180;28;20106;-83
2022/12/02 10:23:18;;;;;;;14.55;5.30;;;7.00;99.90;;;;;;5038483;28;20078;-83
2022/12/02 10:25:54;;;;;;;16.42;5.13;;;7.00;99.90;;;;;;5019833;28;20249;-84
2022/12/02 10:28:29;;;;;;;13.52;5.28;;;7.00;99.90;;;;;;5005927;28;20026;-83
2022/12/02 10:31:03;;;;;;;15.05;5.05;;;7.00;99.90;;;;;;5008245;28;21283;-84
2022/12/02 10:33:31;;;;;;;15.70;5.77;;;7.00;99.90;;;;;;5017530;28;20034;-83
2022/12/02 10:35:59;;;;;;;16.08;5.68;;;7.10;99.90;;;;;;5021315;28;20056;-83
2022/12/02 10:38:41;;;;;;;16.40;5.68;;;7.10;99.90;;;;;;5047358;28;20037;-83
2022/12/02 10:41:14;;;;;;;16.88;6.55;;;7.10;99.90;;;;;;5042924;28;20036;-83
2022/12/02 10:43:51;;;;;;;15.40;5.25;;;7.20;99.90;;;;;;5000319;28;20128;-83
2022/12/02 10:46:19;;;;;;;13.63;4.27;;;7.10;99.90;;;;;;5021238;28;20155;-83
2022/12/02 10:48:46;;;;;;;14.35;5.32;;;7.10;99.90;;;;;;5010738;28;21861;-83
2022/12/02 10:51:17;;;;;;;14.02;4.78;;;7.20;99.90;;;;;;5052547;28;20051;-83
2022/12/02 10:53:45;;;;;;;10.65;4.18;;;7.20;99.90;;;;;;5033234;28;20505;-83
2022/12/02 10:56:20;;;;;;;15.43;5.32;;;7.20;99.90;;;;;;5011082;28;20044;-84
2022/12/02 10:58:46;;;;;;;13.40;4.93;;;7.20;99.90;;;;;;5003650;28;20515;-83
2022/12/02 11:01:12;;;;;;;13.07;4.95;;;7.20;99.90;;;;;;5026523;28;20041;-84
2022/12/02 11:03:39;;;;;;;13.10;5.10;;;7.30;99.90;;;;;;5021225;28;20318;-83
2022/12/02 11:06:13;;;;;;;12.60;5.20;;;7.30;99.90;;;;;;5019613;28;20064;-83
2022/12/02 11:08:41;;;;;;;15.48;5.15;;;7.30;99.90;;;;;;5030071;28;20490;-83
2022/12/02 11:11:16;;;;;;;12.07;4.67;;;7.30;99.90;;;;;;5030945;28;20036;-83
2022/12/02 11:13:57;;;;;;;12.93;5.57;;;7.30;99.90;;;;;;5002383;28;20048;-83
2022/12/02 11:16:26;;;;;;;15.25;4.80;;;7.30;99.90;;;;;;5034071;28;20271;-84
2022/12/02 11:19:01;;;;;;;11.43;4.30;;;7.30;99.90;;;;;;5008814;28;20039;-83
2022/12/02 11:21:26;;;;;;;11.57;4.20;;;7.30;99.90;;;;;;4994800;28;20051;-83
2022/12/02 11:24:25;;;;;;;11.23;4.23;;;7.30;99.90;;;;;;5026319;28;20025;-83
2022/12/02 11:27:00;;;;;;;12.27;4.85;;;7.30;99.90;;;;;;5032002;28;20060;-83
2022/12/02 11:29:42;;;;;;;14.32;4.90;;;7.30;99.90;;;;;;4989955;28;20725;-84
2022/12/02 11:32:26;;;;;;;11.43;4.70;;;7.30;99.90;;;;;;5023851;28;20020;-83
2022/12/02 11:34:56;;;;;;;13.57;5.20;;;7.40;99.90;;;;;;4993857;28;20646;-84
2022/12/02 11:37:28;;;;;;;13.00;4.50;;;7.30;99.90;;;;;;5025423;28;20414;-83
2022/12/02 11:39:56;;;;;;;13.38;4.57;;;7.30;99.90;;;;;;5025034;28;20053;-84
2022/12/02 11:42:24;;;;;;;11.85;4.60;;;7.30;99.90;;;;;;5031157;28;20540;-84
2022/12/02 11:44:51;;;;;;;12.77;5.10;;;7.30;99.90;;;;;;5012003;28;20034;-84
2022/12/02 11:47:31;;;;;;;13.25;5.03;;;7.30;99.90;;;;;;5024407;28;20435;-84
2022/12/02 11:50:20;;;;;;;17.05;6.18;;;7.30;99.90;;;;;;5008677;28;20029;-84
2022/12/02 11:52:58;;;;;;;13.48;4.60;;;7.30;99.90;;;;;;5014455;28;20032;-84
2022/12/02 11:55:34;;;;;;;13.65;5.43;;;7.20;99.90;;;;;;5033618;28;20063;-83
2022/12/02 11:58:01;;;;;;;13.07;4.87;;;7.20;99.90;;;;;;5035928;28;20479;-83
2022/12/02 12:00:33;;;;;;;11.27;4.43;;;7.20;99.90;;;;;;5034789;28;20033;-83
2022/12/02 12:03:14;;;;;;;11.18;4.32;;;7.20;99.90;;;;;;5027194;28;20115;-84
2022/12/02 12:06:00;;;;;;;10.75;3.95;;;7.20;99.90;;;;;;5025731;28;20649;-85
2022/12/02 12:08:26;;;;;;;11.63;4.25;;;7.20;99.90;;;;;;5032869;28;20463;-83
2022/12/02 12:11:31;;;;;;;10.67;3.70;;;7.20;99.90;;;;;;5057245;28;20041;-83
2022/12/02 12:14:26;;;;;;;11.30;4.07;;;7.20;99.90;;;;;;5017526;28;20025;-83
2022/12/02 12:17:15;;;;;;;12.45;4.15;;;7.20;99.90;;;;;;4988401;28;20040;-83
2022/12/02 12:19:41;;;;;;;12.83;4.87;;;7.10;99.90;;;;;;5015833;28;20029;-83
2022/12/02 12:22:26;;;;;;;12.00;4.38;;;7.10;99.90;;;;;;4997112;28;20063;-84
2022/12/02 12:24:52;;;;;;;12.52;4.47;;;7.10;99.90;;;;;;5009722;28;20155;-84
2022/12/02 12:27:50;;;;;;;14.07;4.97;;;7.10;99.90;;;;;;5023858;28;20265;-83
2022/12/02 12:30:16;;;;;;;12.32;4.45;;;7.10;99.90;;;;;;5004344;28;20531;-83
2022/12/02 12:32:41;;;;;;;13.33;4.33;;;7.10;99.90;;;;;;5014402;28;20021;-83
2022/12/02 12:35:07;;;;;;;10.50;4.22;;;7.10;99.90;;;;;;5025455;28;20431;-83
2022/12/02 12:37:32;;;;;;;13.07;4.70;;;7.10;99.90;;;;;;5044821;28;20025;-83
2022/12/02 12:39:58;;;;;;;12.98;5.13;;;7.10;99.90;;;;;;5024126;28;20033;-83
2022/12/02 12:42:24;;;;;;;12.80;4.57;;;7.10;99.90;;;;;;5011130;28;20269;-83
2022/12/02 12:44:51;;;;;;;14.57;5.10;;;7.10;99.90;;;;;;5028439;28;20025;-83
2022/12/02 12:47:16;;;;;;;13.43;5.13;;;7.10;99.90;;;;;;5005722;28;20146;-84
2022/12/02 12:49:42;;;;;;;12.35;4.75;;;7.10;99.90;;;;;;5002040;28;20228;-83
2022/12/02 12:52:08;;;;;;;11.27;4.00;;;7.10;99.90;;;;;;5048217;28;20021;-83
2022/12/02 12:54:34;;;;;;;11.50;4.20;;;7.10;99.90;;;;;;5029035;28;20087;-84
2022/12/02 12:57:00;;;;;;;10.20;4.10;;;7.10;99.90;;;;;;5027883;28;20221;-83
2022/12/02 12:59:26;;;;;;;11.55;4.50;;;7.10;99.90;;;;;;5014398;28;20401;-83
2022/12/02 13:01:52;;;;;;;8.53;3.67;;;7.10;99.90;;;;;;5021922;28;20772;-84